Flight Track Log - Related Links

Times and Time Zones

All times are in EDT time to prevent confusion due to time zone crossing. See the AMX536 flight status page for this flight to view local times or setup timezone preferences in your user account.

Time Position Orientation Groundspeed Altitude Reporting Facility
EDT Latitude Longitude Course Direction KTS MPH feet Rate Location/Type
Wed 09:46:00 AM 20.8015 -90.6679 262° West  Level Estimated
Wed 09:47:00 AM 20.7876 -90.7688 262° West  Level Estimated
Wed 09:48:00 AM 20.7736 -90.8697 262° West  Level Estimated
Wed 09:49:00 AM 20.7597 -90.9706 262° West  Level Estimated
Wed 09:50:00 AM 20.7456 -91.0714 262° West  Level Estimated
Wed 09:51:00 AM 20.7315 -91.1723 262° West  Level Estimated
Wed 09:52:00 AM 20.7173 -91.2731 261° West  Level Estimated
Wed 09:53:00 AM 20.7031 -91.3739 261° West  Level Estimated
Wed 09:54:00 AM 20.6888 -91.4747 261° West  Level Estimated
Wed 09:55:00 AM 20.6745 -91.5754 261° West  Level Estimated
Wed 09:56:00 AM 20.6600 -91.6762 261° West  Level Estimated
Wed 09:57:00 AM 20.6456 -91.7769 261° West  Level Estimated
Wed 09:58:00 AM 20.6311 -91.8776 261° West  Level Estimated
Wed 09:59:00 AM 20.6165 -91.9783 261° West  Level Estimated
Wed 10:00:00 AM 20.6019 -92.0790 261° West  Level Estimated
Wed 10:01:00 AM 20.5872 -92.1796 261° West  Level Estimated
Wed 10:02:00 AM 20.5724 -92.2803 261° West  Level Estimated
Wed 10:03:00 AM 20.5576 -92.3809 261° West  Level Estimated
Wed 10:04:00 AM 20.5427 -92.4815 261° West  Level Estimated
Wed 10:05:00 AM 20.5278 -92.5820 261° West  Level Estimated
Wed 10:06:00 AM 20.5128 -92.6826 261° West  Level Estimated
Wed 10:07:00 AM 20.4977 -92.7831 261° West  Level Estimated
Wed 10:08:00 AM 20.4826 -92.8836 261° West  Level Estimated
Wed 10:09:00 AM 20.4675 -92.9841 261° West  Level Estimated
Wed 10:10:00 AM 20.4523 -93.0846 261° West  Level Estimated
Wed 10:11:00 AM 20.4370 -93.1851 261° West  Level Estimated
Wed 10:12:00 AM 20.4216 -93.2855 261° West  Level Estimated
Wed 10:13:00 AM 20.4063 -93.3859 261° West  Level Estimated
Wed 10:14:00 AM 20.3908 -93.4863 261° West  Level Estimated
Wed 10:15:00 AM 20.3753 -93.5867 261° West  Level Estimated
Wed 10:16:00 AM 20.3597 -93.6871 261° West  Level Estimated
Wed 10:17:00 AM 20.3441 -93.7874 261° West  Level Estimated
Wed 10:18:00 AM 20.3284 -93.8877 261° West  Level Estimated
Wed 10:19:00 AM 20.3127 -93.9880 261° West  Level Estimated
Wed 10:20:00 AM 20.2969 -94.0883 260° West  Level Estimated
Wed 10:21:00 AM 20.2811 -94.1885 260° West  Level Estimated
Wed 10:22:00 AM 20.2652 -94.2887 260° West  Level Estimated
Wed 10:23:00 AM 20.2492 -94.3889 260° West  Level Estimated
Wed 10:24:00 AM 20.2332 -94.4891 260° West  Level Estimated
Wed 10:25:00 AM 20.2171 -94.5893 260° West  Level Estimated
Wed 10:26:00 AM 20.2010 -94.6895 260° West  Level Estimated
Wed 10:27:00 AM 20.1848 -94.7896 260° West  Level Estimated
Wed 10:28:00 AM 20.1685 -94.8897 260° West  Level Estimated
Wed 10:29:00 AM 20.1522 -94.9898 260° West  Level Estimated
Wed 10:30:00 AM 20.1359 -95.0899 260° West  Level Estimated
Wed 10:31:00 AM 20.1194 -95.1899 260° West  Level Estimated
Wed 10:32:00 AM 20.1030 -95.2899 260° West  Level Estimated
Wed 10:33:00 AM 20.0864 -95.3899 260° West  Level Estimated
Wed 10:34:00 AM 20.0699 -95.4899 260° West  Level Estimated
Wed 10:35:00 AM 20.0532 -95.5899 260° West  Level Estimated
Wed 10:36:00 AM 20.0365 -95.6898 260° West  Level Estimated
Wed 10:37:00 AM 20.0198 -95.7897 260° West  Level Estimated
Wed 10:38:00 AM 20.0030 -95.8896 260° West  Level Estimated
Wed 10:39:00 AM 19.9861 -95.9895 260° West  Level Estimated
Wed 10:40:00 AM 19.9692 -96.0894 260° West  Level Estimated
Wed 10:41:00 AM 19.9522 -96.1892 260° West  Level Estimated
Wed 10:42:00 AM 19.9352 -96.2890 260° West  Level Estimated
Wed 10:43:00 AM 19.9181 -96.3888 260° West  Level Estimated
Wed 10:44:00 AM 19.9009 -96.4886 260° West  Level Estimated
Wed 10:45:00 AM 19.8837 -96.5883 260° West  Level Estimated
Wed 10:46:00 AM 19.8664 -96.6880 260° West  Level Estimated
Wed 10:47:00 AM 19.8491 -96.7877 260° West  Level Estimated
Wed 10:48:00 AM 19.8318 -96.8874 260° West  Level Estimated
Wed 10:49:00 AM 19.8144 -96.9871 259° West  Level Estimated
Wed 10:50:00 AM 19.7969 -97.0867 259° West  Level Estimated
Wed 10:51:00 AM 19.7793 -97.1863 259° West  Level Estimated
Wed 10:52:00 AM 19.7617 -97.2859 259° West  Level Estimated
Wed 10:53:00 AM 19.7441 -97.3855 259° West  Level Estimated
Wed 10:54:00 AM 19.7264 -97.4850 259° West  Level Estimated
Wed 10:55:00 AM 19.7087 -97.5846 259° West  Level Estimated
Wed 10:56:00 AM 19.6908 -97.6841 259° West  Level Estimated
Wed 10:57:00 AM 19.6730 -97.7836 259° West  Level Estimated
Wed 10:58:00 AM 19.6551 -97.8830 259° West  Level Estimated
Wed 10:59:00 AM 19.6371 -97.9825 259° West  Level Estimated
Wed 11:00:00 AM 19.6191 -98.0819 259° West  Level Estimated
Wed 11:01:00 AM 19.6010 -98.1813 259° West  Level Estimated
Wed 11:02:00 AM 19.5828 -98.2806 259° West  Level Estimated
Wed 11:03:00 AM 19.5647 -98.3800 259° West  Level Estimated
Wed 11:04:00 AM 19.5464 -98.4793 259° West  Level Estimated
Wed 11:05:00 AM 19.5281 -98.5786 259° West  Level Estimated
Wed 11:06:00 AM 19.5098 -98.6779 259° West  Level Estimated
Wed 11:07:00 AM 19.4914 -98.7772 259° West  Level Estimated
Wed 11:08:00 AM 19.4729 -98.8764 259° West  Level Estimated
Wed 11:09:00 AM 19.4544 -98.9756 259° West  Level Estimated
Wed 11:10:00 AM 19.4363 -99.0721 259° West  Level Estimated
Wed 11:11:00 AM 19.4363 -99.0721 43° Northeast  Level Estimated
Wed 11:12:00 AM 19.4363 -99.0721 43° Northeast  Level Estimated
Wed 11:13:00 AM 19.4363 -99.0721 43° Northeast  Level Estimated
Wed 11:14:00 AM 19.4363 -99.0721 43° Northeast  Level Estimated
Wed 11:15:00 AM 19.4363 -99.0721 43° Northeast  Level Estimated
Wed 11:16:00 AM 19.4363 -99.0721 43° Northeast  Level Estimated
Wed 11:17:00 AM 19.4363 -99.0721 43° Northeast  Level Estimated
Wed 11:18:00 AM 19.4363 -99.0721 43° Northeast  Level Estimated
Wed 11:19:00 AM 19.4363 -99.0721 43° Northeast  Level Estimated
Wed 11:20:00 AM 19.4363 -99.0721 43° Northeast  Level Estimated
Wed 11:21:00 AM 19.4363 -99.0721 43° Northeast  Level Estimated
Wed 11:22:00 AM 19.4363 -99.0721 43° Northeast  Level Estimated
Wed 11:23:00 AM 19.4363 -99.0721 43° Northeast  Level Estimated
Wed 11:24:00 AM 19.4363 -99.0721 43° Northeast  Level Estimated
Wed 11:25:00 AM 19.4363 -99.0721 43° Northeast  Level Estimated
Wed 11:26:00 AM 19.4363 -99.0721 43° Northeast  Level Estimated

Login

Don't have an account? Register now (free) for customized features, flight alerts, and more!